Time;durP1;ratioP1;P1;durP2;ratioP2;P2;SDS_P1;SDS_P2;PMS_P1;PMS_P2;Temp;Humidity;BMP_temperature;BMP_pressure;BME280_temperature;BME280_humidity;BME280_pressure;Samples;Min_cycle;Max_cycle;Signal;HPM_P1;HPM_P2
2022/01/14 00:00:23;;;;;;;13.70;8.73;;;9.30;60.00;;;7.64;65.63;102709.56;8200045;28;20062;-82
2022/01/14 00:04:45;;;;;;;14.68;9.00;;;9.30;60.00;;;7.57;65.97;102701.00;8189759;28;20039;-82
2022/01/14 00:09:09;;;;;;;13.60;8.85;;;9.30;60.00;;;7.61;66.04;102696.63;8193316;28;20134;-82
2022/01/14 00:13:46;;;;;;;15.40;8.45;;;9.20;60.00;;;7.67;65.75;102709.53;8203420;28;20691;-82
2022/01/14 00:18:08;;;;;;;14.40;9.07;;;9.20;60.10;;;7.70;65.85;102710.38;8220240;28;20129;-82
2022/01/14 00:22:30;;;;;;;11.88;7.95;;;9.30;60.10;;;7.65;65.94;102701.78;8201563;28;20042;-82
2022/01/14 00:31:42;;;;;;;13.48;8.63;;;9.30;60.10;;;7.67;65.56;102713.03;8200200;28;20130;-82
2022/01/14 00:36:04;;;;;;;14.00;9.50;;;9.30;60.10;;;7.58;65.99;102692.31;8201706;28;20118;-82
2022/01/14 00:40:26;;;;;;;11.90;8.32;;;9.30;60.10;;;7.72;65.62;102715.56;8199106;28;20555;-82
2022/01/14 00:44:48;;;;;;;13.65;8.43;;;9.30;60.10;;;7.66;65.69;102702.63;8207127;28;20117;-82
2022/01/14 00:49:11;;;;;;;14.45;8.38;;;9.30;60.20;;;7.71;65.90;102700.84;8211422;28;20122;-82
2022/01/14 00:53:32;;;;;;;12.90;8.38;;;9.30;60.10;;;7.73;65.78;102702.56;8210710;28;20126;-82
2022/01/14 01:02:20;;;;;;;14.68;8.57;;;9.40;60.20;;;7.69;65.67;102698.25;8214663;28;20122;-83
2022/01/14 01:06:43;;;;;;;13.63;8.15;;;9.30;60.10;;;7.82;65.76;102714.56;8200995;28;20118;-82
2022/01/14 01:11:09;;;;;;;15.32;8.27;;;9.40;60.20;;;7.66;65.80;102681.81;8216465;28;20126;-82
2022/01/14 01:15:31;;;;;;;13.05;8.30;;;9.40;60.20;;;7.84;65.67;102712.81;8206173;28;20128;-82
2022/01/14 01:19:53;;;;;;;17.70;9.70;;;9.40;60.20;;;7.73;65.50;102694.75;8189477;28;20457;-82
2022/01/14 01:24:15;;;;;;;12.10;8.23;;;9.40;60.20;;;7.86;65.50;102705.03;8181729;28;20054;-82
2022/01/14 01:28:52;;;;;;;13.40;8.07;;;9.50;60.30;;;7.79;65.95;102687.75;8196069;28;20121;-83
2022/01/14 01:33:14;;;;;;;17.50;9.38;;;9.50;60.30;;;7.76;65.84;102680.84;8188076;28;20595;-82
2022/01/14 01:37:36;;;;;;;11.45;7.80;;;9.40;60.20;;;7.78;65.56;102689.50;8221573;28;20142;-82
2022/01/14 01:42:05;;;;;;;14.05;8.05;;;9.50;60.30;;;7.83;65.44;102698.13;8195938;28;20126;-82
2022/01/14 01:46:27;;;;;;;11.40;7.68;;;9.50;60.30;;;7.85;66.06;102693.72;8214816;28;20102;-83
2022/01/14 01:50:49;;;;;;;12.95;8.35;;;9.50;60.20;;;7.82;65.88;102678.16;8201887;28;20118;-82
2022/01/14 01:55:12;;;;;;;16.38;9.05;;;9.50;60.20;;;7.92;65.75;102684.13;8201151;28;20129;-83
2022/01/14 01:59:34;;;;;;;15.70;8.95;;;9.50;60.20;;;7.94;65.72;102687.56;8201218;28;20031;-82
2022/01/14 02:03:56;;;;;;;15.68;8.35;;;9.50;60.30;;;7.94;65.60;102680.63;8201880;28;20039;-82
2022/01/14 02:08:18;;;;;;;12.32;8.05;;;9.50;60.30;;;7.95;65.81;102677.13;8210439;28;20125;-82
2022/01/14 02:12:49;;;;;;;11.88;7.50;;;9.50;60.30;;;7.85;65.96;102670.31;8208076;28;20126;-82
2022/01/14 02:26:17;;;;;;;13.18;8.60;;;9.50;60.30;;;7.91;65.64;102667.66;8202455;28;20592;-83
2022/01/14 02:30:41;;;;;;;12.75;8.68;;;9.50;60.30;;;7.86;65.64;102653.84;8194574;28;20118;-82
2022/01/14 02:35:04;;;;;;;13.15;8.55;;;9.60;60.50;;;7.86;65.57;102653.84;8200717;28;20047;-82
2022/01/14 02:39:25;;;;;;;11.93;8.10;;;9.60;60.50;;;7.88;65.73;102646.88;8197157;28;20463;-82
2022/01/14 02:43:47;;;;;;;11.80;8.75;;;9.60;60.50;;;7.83;65.52;102638.28;8190236;28;20038;-82
2022/01/14 02:48:09;;;;;;;12.30;8.05;;;9.60;60.60;;;7.77;65.87;102612.34;8189408;28;20118;-82
2022/01/14 02:52:43;;;;;;;13.52;8.73;;;9.50;60.60;;;7.98;65.63;102648.47;8208407;28;20572;-82
2022/01/14 02:57:09;;;;;;;13.82;8.52;;;9.60;60.70;;;7.82;65.77;102615.75;8182991;28;20122;-82
2022/01/14 03:01:30;;;;;;;;;;;9.60;60.80;;;7.95;66.13;102634.66;8208295;28;20130;-83
2022/01/14 03:05:52;;;;;;;11.38;7.35;;;9.60;60.70;;;7.93;66.01;102629.47;8185703;28;20299;-82
2022/01/14 03:10:17;;;;;;;14.23;7.75;;;9.50;60.50;;;7.91;66.06;102619.97;8178787;28;20125;-82
2022/01/14 03:14:39;;;;;;;13.52;8.32;;;9.60;60.80;;;7.84;65.85;102598.38;8201667;28;20118;-82
2022/01/14 03:19:05;;;;;;;16.20;9.20;;;9.50;60.80;;;7.87;65.95;102605.28;8205106;28;20125;-82
2022/01/14 03:23:26;;;;;;;14.40;8.68;;;9.50;60.90;;;7.96;65.93;102615.56;8187548;28;20031;-82
2022/01/14 03:27:48;;;;;;;15.75;8.95;;;9.50;61.00;;;7.86;65.94;102580.19;8203789;28;20138;-82
2022/01/14 03:32:10;;;;;;;14.70;8.23;;;9.40;60.90;;;7.92;65.74;102599.13;8180251;28;20560;-82
2022/01/14 03:36:32;;;;;;;15.60;9.55;;;9.50;61.10;;;7.90;66.09;102592.25;8204726;28;20548;-82
2022/01/14 03:40:54;;;;;;;15.85;9.60;;;9.50;61.10;;;7.81;66.02;102587.19;8198162;28;20126;-82
2022/01/14 03:45:16;;;;;;;16.30;8.60;;;9.50;61.20;;;7.82;66.00;102589.75;8192677;28;20043;-83
2022/01/14 03:49:38;;;;;;;13.52;8.10;;;9.50;62.00;;;7.70;66.02;102556.13;8207624;28;20121;-82
2022/01/14 03:53:59;;;;;;;15.70;9.20;;;9.40;61.40;;;7.81;65.86;102568.97;8205858;28;20130;-82
2022/01/14 03:58:21;;;;;;;17.10;9.43;;;9.50;61.50;;;7.84;66.10;102568.91;8180081;28;20127;-82
2022/01/14 04:02:44;;;;;;;11.25;7.63;;;9.40;61.50;;;7.80;65.97;102562.88;8198608;28;20036;-82
2022/01/14 04:07:06;;;;;;;14.13;8.18;;;9.40;61.60;;;7.79;66.09;102553.38;8218017;28;20118;-82
2022/01/14 04:11:29;;;;;;;15.80;8.50;;;9.50;61.70;;;7.79;65.90;102548.16;8190022;28;20141;-82
2022/01/14 04:15:51;;;;;;;11.13;8.25;;;9.40;61.70;;;7.81;65.72;102546.41;8206068;28;20114;-82
2022/01/14 04:20:14;;;;;;;14.80;9.40;;;9.40;61.70;;;7.76;66.10;102538.66;8191321;28;20043;-82
2022/01/14 04:24:36;;;;;;;15.65;8.75;;;9.40;61.90;;;7.69;66.10;102521.44;8191053;28;20049;-83
2022/01/14 04:28:57;;;;;;;13.15;8.55;;;9.40;61.90;;;7.81;65.78;102537.75;8175715;28;20039;-82
2022/01/14 04:33:19;;;;;;;10.18;7.00;;;9.40;61.90;;;7.78;66.16;102540.38;8173128;28;20514;-82
2022/01/14 04:37:41;;;;;;;10.82;7.60;;;9.40;61.90;;;7.71;66.33;102531.81;8174584;28;20043;-82
2022/01/14 04:42:03;;;;;;;14.82;8.25;;;9.40;61.90;;;7.69;66.04;102517.97;8186066;28;20039;-82
2022/01/14 04:50:53;;;;;;;12.70;8.70;;;9.30;62.10;;;7.52;66.38;102477.47;8189631;28;20493;-82
2022/01/14 04:55:18;;;;;;;11.75;8.23;;;9.30;62.20;;;7.70;66.31;102517.97;8176988;28;20049;-82
2022/01/14 04:59:41;;;;;;;11.10;7.35;;;9.30;62.20;;;7.67;66.30;102501.53;8174306;28;20035;-82
2022/01/14 05:04:03;;;;;;;12.30;7.75;;;9.30;62.20;;;7.65;66.29;102500.72;8187026;28;20039;-82
2022/01/14 05:08:34;;;;;;;10.93;7.07;;;9.30;62.30;;;7.65;66.24;102495.50;8189972;28;20072;-81
2022/01/14 05:12:57;;;;;;;11.27;7.90;;;9.20;62.30;;;7.50;66.27;102470.56;8185922;28;20061;-81
2022/01/14 05:17:18;;;;;;;10.75;7.25;;;9.30;62.50;;;7.63;66.26;102494.66;8189068;28;20038;-82
2022/01/14 05:21:40;;;;;;;11.73;7.80;;;9.30;62.40;;;7.62;66.41;102487.75;8172287;28;20031;-82
2022/01/14 05:26:02;;;;;;;11.55;7.88;;;9.30;62.50;;;7.61;66.47;102497.28;8197198;28;20400;-83
2022/01/14 05:30:24;;;;;;;13.93;8.65;;;9.30;62.60;;;7.67;66.13;102504.13;8184613;28;20035;-82
2022/01/14 05:34:46;;;;;;;14.27;8.18;;;9.30;62.70;;;7.67;66.19;102514.53;8186867;28;20049;-82
2022/01/14 05:39:09;;;;;;;11.15;8.30;;;9.20;62.60;;;7.63;66.42;102508.53;8198135;28;20027;-82
2022/01/14 05:43:30;;;;;;;15.02;9.05;;;9.30;62.70;;;7.59;66.50;102490.38;8187389;28;20049;-82
2022/01/14 05:47:52;;;;;;;12.70;8.55;;;9.30;62.80;;;7.55;66.25;102484.38;8188456;28;20396;-82
2022/01/14 05:52:14;;;;;;;13.20;8.95;;;9.20;62.80;;;7.65;66.43;102506.75;8202469;28;20039;-82
2022/01/14 05:56:36;;;;;;;12.30;7.88;;;9.20;62.60;;;7.64;66.70;102497.25;8201108;28;20073;-85
2022/01/14 06:00:57;;;;;;;13.95;8.90;;;9.20;62.90;;;7.63;66.52;102476.47;8185943;28;20157;-84
2022/01/14 06:05:20;;;;;;;14.30;8.75;;;9.20;62.90;;;7.59;66.66;102470.47;8183116;28;20039;-84
2022/01/14 06:09:42;;;;;;;19.38;9.85;;;9.20;62.80;;;7.54;66.67;102464.47;8197376;28;20037;-85
2022/01/14 06:14:04;;;;;;;11.90;7.53;;;9.20;62.90;;;7.50;66.42;102467.97;8170803;28;20035;-83
2022/01/14 06:18:25;;;;;;;13.35;8.63;;;9.20;62.60;;;7.38;66.49;102457.78;8181013;28;20628;-83
2022/01/14 06:22:47;;;;;;;15.40;9.90;;;9.20;62.70;;;7.51;66.46;102475.78;8175339;28;20049;-84
2022/01/14 06:27:09;;;;;;;21.70;10.52;;;9.20;63.50;;;7.50;65.95;102474.03;8190706;28;20031;-85
2022/01/14 06:31:30;;;;;;;13.93;8.93;;;9.20;62.70;;;7.47;66.18;102475.81;8178547;28;20038;-84
2022/01/14 06:35:52;;;;;;;17.63;10.07;;;9.10;62.50;;;7.53;66.78;102494.81;8183541;28;20115;-84
2022/01/14 06:40:14;;;;;;;19.95;10.70;;;9.00;62.60;;;7.44;66.54;102488.88;8176340;28;20400;-83
2022/01/14 06:44:36;;;;;;;19.95;11.60;;;9.10;62.60;;;7.46;66.34;102500.09;8188721;28;20803;-85
2022/01/14 06:48:58;;;;;;;21.52;12.23;;;9.10;62.70;;;7.39;66.57;102496.72;8200834;28;20047;-83
2022/01/14 06:53:19;;;;;;;17.70;9.63;;;9.00;62.60;;;7.27;66.55;102478.72;8179140;28;20034;-85
2022/01/14 06:57:41;;;;;;;15.07;10.20;;;9.10;62.60;;;7.44;66.67;102514.84;8188945;28;20043;-84
2022/01/14 07:02:03;;;;;;;19.17;9.82;;;9.00;62.60;;;7.32;66.48;102527.13;8205875;28;20042;-84
2022/01/14 07:06:25;;;;;;;24.15;11.73;;;9.00;62.60;;;7.42;66.33;102551.25;8194762;28;20035;-86
2022/01/14 07:10:47;;;;;;;24.88;13.40;;;9.00;62.80;;;7.42;66.47;102543.47;8200426;28;20031;-82
2022/01/14 07:15:14;;;;;;;27.23;14.07;;;9.00;62.80;;;7.36;66.83;102514.94;8170543;28;20404;-83
2022/01/14 07:19:37;;;;;;;21.63;12.50;;;9.00;63.20;;;7.39;66.82;102538.31;8209287;28;20125;-83
2022/01/14 07:23:59;;;;;;;20.40;11.57;;;9.00;62.80;;;7.39;66.92;102535.69;8209824;28;20040;-83
2022/01/14 07:28:20;;;;;;;19.83;10.93;;;8.90;62.60;;;7.33;66.45;102509.81;8200096;28;20039;-82
2022/01/14 07:32:44;;;;;;;19.08;11.15;;;8.90;62.40;;;7.36;66.48;102506.31;8186672;28;20118;-87
2022/01/14 07:37:06;;;;;;;20.80;10.73;;;9.00;62.50;;;7.35;66.59;102496.81;8171272;28;20095;-88
2022/01/14 07:41:27;;;;;;;17.48;9.85;;;9.00;62.50;;;7.28;66.62;102490.81;8197065;28;20129;-84
2022/01/14 07:45:49;;;;;;;16.52;9.77;;;9.00;62.40;;;7.32;66.36;102482.09;8179912;28;20560;-89
2022/01/14 07:50:13;;;;;;;18.45;9.20;;;9.00;62.30;;;7.38;66.44;102491.56;8201539;28;20129;-86
2022/01/14 07:54:35;;;;;;;15.13;7.85;;;9.00;62.30;;;7.44;66.52;102494.06;8169580;28;20114;-86
2022/01/14 07:58:57;;;;;;;16.35;8.30;;;9.00;62.30;;;7.42;66.35;102483.69;8197104;28;20472;-87
2022/01/14 08:03:19;;;;;;;12.82;8.13;;;9.10;62.30;;;7.48;66.92;102481.00;8193821;28;20121;-88
2022/01/14 08:07:45;;;;;;;15.07;8.52;;;9.10;62.30;;;7.53;66.84;102493.94;8202173;28;20102;-84
2022/01/14 08:12:09;;;;;;;13.32;8.18;;;9.10;62.30;;;7.48;66.81;102475.81;8210847;28;20038;-86
2022/01/14 08:16:31;;;;;;;13.25;8.38;;;9.10;62.20;;;7.43;66.54;102459.44;8200897;28;20031;-85
2022/01/14 08:20:53;;;;;;;12.38;8.07;;;9.10;62.20;;;7.30;66.75;102434.47;8206851;28;20117;-82
2022/01/14 08:25:14;;;;;;;13.57;8.70;;;9.10;62.20;;;7.35;66.67;102450.88;8207203;28;20045;-84
2022/01/14 08:29:36;;;;;;;12.60;8.48;;;9.20;62.30;;;7.47;66.54;102463.69;8201202;28;20039;-86
2022/01/14 08:33:58;;;;;;;15.82;8.48;;;9.10;62.40;;;7.58;66.94;102491.28;8187495;28;20130;-85
2022/01/14 08:38:20;;;;;;;14.38;8.85;;;9.00;62.30;;;7.57;66.49;102482.63;8200855;28;20137;-85
2022/01/14 08:42:44;;;;;;;14.77;8.57;;;9.10;62.30;;;7.59;66.38;102495.56;8199269;28;20035;-84
2022/01/14 08:47:09;;;;;;;11.90;7.38;;;9.20;62.50;;;7.58;66.51;102486.94;8212370;28;20050;-86
2022/01/14 08:51:31;;;;;;;11.65;7.45;;;9.20;62.50;;;7.47;66.72;102461.09;8205292;28;20130;-86
2022/01/14 08:55:52;;;;;;;11.85;7.57;;;9.20;62.50;;;7.53;66.86;102471.41;8219771;28;20125;-86
2022/01/14 09:00:19;;;;;;;12.23;7.97;;;9.20;62.60;;;7.54;66.67;102486.13;8197127;28;20149;-84
2022/01/14 09:04:41;;;;;;;11.93;7.28;;;9.20;62.60;;;7.07;66.76;102396.69;8202666;28;20039;-88
2022/01/14 09:09:03;;;;;;;12.13;7.57;;;9.20;62.70;;;7.54;66.63;102475.72;8201338;28;20126;-87
2022/01/14 09:13:25;;;;;;;14.18;7.68;;;9.00;62.60;;;7.60;66.73;102479.13;8209830;28;20700;-86
2022/01/14 09:17:47;;;;;;;11.85;7.18;;;9.20;62.80;;;7.57;66.74;102463.56;8189111;28;20033;-85
2022/01/14 09:22:09;;;;;;;10.75;6.95;;;9.20;62.90;;;7.54;66.86;102465.31;8180250;28;20034;-86
2022/01/14 09:26:36;;;;;;;13.27;7.40;;;9.20;62.90;;;7.43;66.60;102443.84;8195762;28;20043;-84
2022/01/14 09:30:57;;;;;;;14.02;7.55;;;9.20;62.90;;;7.64;66.55;102471.25;8194656;28;20134;-84
2022/01/14 09:35:20;;;;;;;11.10;6.25;;;9.20;62.90;;;7.60;66.70;102474.78;8198520;28;20133;-84
2022/01/14 09:39:43;;;;;;;16.08;7.78;;;9.20;62.90;;;7.58;66.96;102476.53;8189752;28;20514;-85
2022/01/14 09:44:05;;;;;;;10.45;6.45;;;9.20;63.00;;;7.55;66.93;102463.56;8171869;28;20500;-85
2022/01/14 09:48:27;;;;;;;12.23;7.45;;;9.20;62.90;;;7.64;66.67;102481.66;8198273;28;20030;-85
2022/01/14 09:52:53;;;;;;;15.98;8.98;;;9.10;62.80;;;7.46;67.00;102448.13;8198330;28;20027;-85
2022/01/14 09:57:16;;;;;;;9.88;7.13;;;9.30;63.10;;;7.46;66.63;102438.59;8212439;28;20038;-82
2022/01/14 10:01:43;;;;;;;11.57;7.47;;;9.20;63.00;;;7.61;66.47;102467.81;8195373;28;20126;-84
2022/01/14 10:06:05;;;;;;;13.77;7.60;;;9.20;63.00;;;7.52;67.00;102445.44;8195626;28;20039;-85
2022/01/14 10:10:28;;;;;;;14.40;7.40;;;9.30;63.10;;;7.61;66.89;102447.88;8204856;28;20030;-85
2022/01/14 10:15:08;;;;;;;13.18;7.22;;;9.30;63.10;;;7.71;67.09;102472.00;8194257;28;20125;-85
2022/01/14 10:19:35;;;;;;;10.38;5.72;;;9.30;63.20;;;7.50;66.61;102414.25;8202322;28;20133;-84
2022/01/14 10:23:59;;;;;;;12.43;8.30;;;9.30;63.10;;;7.50;66.85;102397.78;8193836;28;20047;-88
2022/01/14 10:28:21;;;;;;;11.88;6.28;;;9.30;63.20;;;7.67;66.68;102423.53;8174297;28;20121;-86
2022/01/14 10:32:53;;;;;;;11.18;7.03;;;9.30;63.20;;;7.69;66.66;102420.03;8189919;28;20121;-86
2022/01/14 10:37:16;;;;;;;12.85;6.63;;;9.30;63.20;;;7.69;67.13;102425.22;8200573;28;20125;-85
2022/01/14 10:41:38;;;;;;;12.93;6.93;;;9.40;63.30;;;7.73;66.73;102441.66;8185076;28;20731;-85
2022/01/14 10:46:06;;;;;;;8.65;5.93;;;9.40;63.30;;;7.78;66.96;102442.44;8171034;28;20042;-86
2022/01/14 10:50:44;;;;;;;8.95;5.75;;;9.40;63.30;;;7.67;66.98;102424.41;8188949;29;20145;-86
2022/01/14 10:55:06;;;;;;;10.77;6.15;;;9.40;63.30;;;7.76;66.77;102428.59;8203508;28;20137;-84
2022/01/14 10:59:29;;;;;;;9.52;6.20;;;9.40;63.20;;;7.79;66.69;102431.16;8173191;28;20129;-85
2022/01/14 11:04:06;;;;;;;8.88;5.40;;;9.50;63.30;;;7.60;66.74;102396.78;8212767;28;20041;-84
2022/01/14 11:08:35;;;;;;;6.22;4.53;;;9.40;63.10;;;7.84;66.90;102429.34;8179572;28;20121;-85
2022/01/14 11:12:58;;;;;;;9.93;6.03;;;9.50;63.20;;;7.91;67.10;102430.06;8191841;28;20129;-84
2022/01/14 11:17:19;;;;;;;6.85;5.07;;;9.50;63.10;;;7.92;66.78;102419.66;8189369;29;20142;-84
2022/01/14 11:26:27;;;;;;;12.35;7.50;;;9.60;63.20;;;8.03;66.73;102439.44;8193525;28;20038;-85
2022/01/14 11:30:48;;;;;;;11.40;6.25;;;9.60;63.00;;;8.06;66.70;102419.41;8208351;28;20110;-82
2022/01/14 11:35:24;;;;;;;10.38;5.32;;;9.60;63.00;;;8.07;66.83;102408.13;8187434;28;20126;-86
2022/01/14 11:40:03;;;;;;;10.07;5.03;;;9.60;63.00;;;8.03;67.02;102400.41;8207902;28;20126;-82
2022/01/14 11:44:52;;;;;;;9.75;5.25;;;9.70;63.00;;;8.12;66.64;102389.81;8192573;28;20480;-84
2022/01/14 11:49:37;;;;;;;9.15;5.60;;;9.70;63.10;;;7.90;66.75;102348.59;8212111;28;20142;-89
2022/01/14 11:54:07;;;;;;;8.73;5.32;;;9.70;63.10;;;7.91;66.93;102336.44;8196539;28;20125;-87
2022/01/14 11:58:29;;;;;;;6.90;5.13;;;9.70;63.20;;;8.18;66.97;102384.50;8204967;28;20129;-89
2022/01/14 12:02:51;;;;;;;8.75;4.93;;;9.80;63.20;;;8.22;66.95;102370.56;8174871;28;20540;-88
2022/01/14 12:07:12;;;;;;;4.50;4.00;;;9.80;63.20;;;8.23;66.90;102374.88;8200871;28;20126;-90
2022/01/14 12:11:36;;;;;;;6.80;4.70;;;9.70;63.10;;;8.31;66.94;102396.41;8204040;28;20492;-86
2022/01/14 12:16:37;;;;;;;9.10;4.32;;;9.80;63.00;;;8.27;67.21;102393.91;8195890;28;20486;-88
2022/01/14 12:21:00;;;;;;;7.97;4.65;;;9.90;63.20;;;8.35;66.84;102389.41;8200563;28;20130;-87
2022/01/14 12:25:42;;;;;;;8.15;4.40;;;9.80;63.00;;;8.37;66.70;102393.72;8183582;28;20039;-89
2022/01/14 12:30:18;;;;;;;5.93;3.92;;;9.90;63.20;;;8.20;66.92;102351.50;8186282;28;20039;-87
2022/01/14 12:34:55;;;;;;;6.45;4.50;;;10.00;63.20;;;8.41;66.87;102389.31;8195091;28;20125;-87
2022/01/14 12:39:18;;;;;;;6.63;3.83;;;10.00;63.20;;;8.31;66.94;102374.72;8219468;28;20134;-87
2022/01/14 12:43:52;;;;;;;5.65;3.80;;;10.00;63.10;;;8.34;66.82;102370.31;8188873;28;20050;-87
2022/01/14 12:48:31;;;;;;;5.75;3.97;;;10.00;63.30;;;8.32;66.95;102361.69;8208081;28;20133;-83
2022/01/14 12:52:53;;;;;;;5.30;3.75;;;10.00;63.30;;;8.37;67.03;102353.78;8210976;28;20540;-84
2022/01/14 12:57:21;;;;;;;5.45;4.22;;;10.00;63.20;;;8.41;66.86;102368.50;8186099;28;20122;-85
2022/01/14 13:01:49;;;;;;;4.50;3.90;;;10.00;63.40;;;8.38;66.83;102364.19;8193592;28;20126;-85
2022/01/14 13:06:11;;;;;;;7.53;3.83;;;10.00;63.50;;;8.52;66.98;102373.50;8199560;28;20053;-85
2022/01/14 13:10:34;;;;;;;5.50;3.58;;;10.00;63.50;;;8.51;67.13;102379.59;8213109;28;20117;-86
2022/01/14 13:15:01;;;;;;;6.07;3.22;;;10.10;64.40;;;8.40;66.82;102356.38;8194365;28;20126;-85
2022/01/14 13:19:25;;;;;;;5.88;3.95;;;10.50;64.00;;;8.49;66.91;102369.19;8203610;28;20040;-86
2022/01/14 13:23:47;;;;;;;4.70;2.92;;;10.10;63.70;;;8.53;66.59;102383.88;8201462;28;20101;-85
2022/01/14 13:28:09;;;;;;;7.10;3.47;;;10.10;63.90;;;8.48;66.81;102366.63;8174262;28;20046;-85
2022/01/14 13:32:36;;;;;;;7.55;4.00;;;10.10;64.10;;;8.55;67.32;102397.72;8176860;28;20117;-83
2022/01/14 13:36:58;;;;;;;4.32;3.35;;;10.10;64.20;;;8.56;67.25;102391.63;8179169;28;20133;-86
2022/01/14 13:41:24;;;;;;;7.00;3.95;;;10.20;64.20;;;8.59;67.27;102395.94;8199298;28;20564;-85
2022/01/14 13:45:48;;;;;;;9.73;4.25;;;10.20;64.40;;;8.53;67.17;102393.41;8194934;28;20507;-86
2022/01/14 13:50:16;;;;;;;6.20;3.15;;;10.20;64.40;;;8.63;67.04;102397.56;8218017;28;20588;-86
2022/01/14 13:54:40;;;;;;;3.47;3.15;;;10.20;64.50;;;8.49;67.12;102370.97;8205779;28;20130;-86
2022/01/14 13:59:04;;;;;;;7.45;3.67;;;10.10;64.40;;;8.60;67.42;102392.44;8190507;28;20137;-86
2022/01/14 14:03:44;;;;;;;4.40;3.03;;;10.20;64.50;;;8.68;67.00;102403.53;8196421;28;20041;-85
2022/01/14 14:08:14;;;;;;;3.92;3.25;;;10.20;64.60;;;8.67;67.14;102396.63;8214275;28;20133;-86
2022/01/14 14:12:46;;;;;;;4.50;2.97;;;10.20;64.60;;;8.61;67.14;102382.00;8196682;28;20033;-86
2022/01/14 14:17:10;;;;;;;4.25;3.30;;;10.20;64.80;;;8.71;67.30;102410.44;8199167;28;20122;-86
2022/01/14 14:21:34;;;;;;;3.70;2.97;;;10.30;64.60;;;8.64;66.85;102405.38;8200913;28;20078;-86
2022/01/14 14:26:00;;;;;;;7.13;3.45;;;10.30;64.80;;;8.74;67.19;102405.16;8213118;28;20047;-86
2022/01/14 14:30:23;;;;;;;6.07;3.25;;;10.30;64.80;;;8.69;67.10;102399.19;8198604;28;20034;-87
2022/01/14 14:34:45;;;;;;;5.85;3.17;;;10.30;64.80;;;8.69;67.32;102397.44;8210708;28;20125;-86
2022/01/14 14:39:07;;;;;;;3.75;2.40;;;10.30;64.80;;;8.72;67.17;102397.41;8195395;28;20130;-86
2022/01/14 14:43:29;;;;;;;3.22;2.78;;;10.30;64.80;;;8.82;67.49;102426.69;8177805;28;20523;-88
2022/01/14 14:47:52;;;;;;;3.17;2.47;;;10.30;64.90;;;8.77;67.25;102426.78;8202242;28;20158;-86
2022/01/14 14:52:13;;;;;;;2.60;2.40;;;10.40;65.00;;;8.73;67.28;102409.53;8194662;28;20121;-86
2022/01/14 14:56:35;;;;;;;2.85;2.00;;;10.30;64.80;;;8.57;67.05;102414.16;8202071;28;20516;-86
2022/01/14 15:00:57;;;;;;;2.88;2.25;;;10.40;64.90;;;8.77;67.17;102415.50;8193512;28;20122;-86
2022/01/14 15:05:20;;;;;;;4.32;2.47;;;10.40;65.00;;;8.69;67.63;102413.06;8174926;28;20381;-86
2022/01/14 15:09:42;;;;;;;2.50;2.15;;;10.40;64.90;;;8.79;67.30;102422.41;8173774;28;20134;-87
2022/01/14 15:14:05;;;;;;;2.60;2.20;;;10.40;64.90;;;8.79;67.12;102419.81;8202155;28;20567;-86
2022/01/14 15:18:26;;;;;;;2.20;2.00;;;10.40;65.00;;;8.91;67.12;102441.28;8192860;28;20041;-86
2022/01/14 15:22:50;;;;;;;2.95;2.38;;;10.40;64.90;;;8.86;67.17;102431.81;8199607;28;20479;-84
2022/01/14 15:27:12;;;;;;;3.33;2.38;;;10.40;64.90;;;8.90;67.17;102448.25;8217491;28;20047;-84
2022/01/14 15:31:33;;;;;;;2.75;2.20;;;10.40;64.90;;;8.95;67.21;102454.22;8194540;28;20122;-86
2022/01/14 15:35:56;;;;;;;4.93;2.90;;;10.50;64.90;;;8.94;67.08;102452.50;8202325;28;20037;-86
2022/01/14 15:40:22;;;;;;;3.78;3.03;;;10.40;64.90;;;8.85;67.22;102455.28;8216967;28;20472;-86
2022/01/14 15:44:44;;;;;;;3.78;2.35;;;10.40;64.90;;;8.94;67.66;102482.91;8215948;28;20041;-86
2022/01/14 15:49:06;;;;;;;3.17;2.35;;;10.50;65.00;;;8.87;67.33;102458.72;8198201;28;20118;-86
2022/01/14 15:53:28;;;;;;;2.88;2.65;;;10.50;64.90;;;8.94;67.62;102482.91;8207112;28;20039;-86
2022/01/14 15:57:50;;;;;;;5.53;3.42;;;10.50;65.00;;;8.89;67.57;102483.00;8179235;28;20457;-87
2022/01/14 16:02:12;;;;;;;3.08;2.60;;;10.50;65.70;;;8.92;67.20;102476.88;8203074;28;20039;-86
2022/01/14 16:06:33;;;;;;;2.83;2.22;;;10.50;64.90;;;8.95;67.30;102482.88;8177652;28;20035;-86
2022/01/14 16:10:55;;;;;;;4.78;2.08;;;10.40;64.80;;;8.97;67.33;102483.72;8185417;28;20061;-86
2022/01/14 16:15:18;;;;;;;2.85;2.38;;;10.50;64.80;;;8.95;67.14;102489.84;8211089;28;20126;-87
2022/01/14 16:19:40;;;;;;;3.25;2.80;;;10.50;64.80;;;8.95;67.21;102485.47;8196048;28;20039;-86
2022/01/14 16:24:02;;;;;;;2.88;2.63;;;10.50;64.80;;;8.99;67.29;102507.13;8200035;28;20134;-87
2022/01/14 16:28:24;;;;;;;2.85;2.35;;;10.50;64.80;;;9.01;67.31;102523.59;8217850;28;20047;-85
2022/01/14 16:32:47;;;;;;;2.92;2.63;;;10.60;64.80;;;8.86;67.21;102496.94;8190634;28;20759;-86
2022/01/14 16:37:15;;;;;;;2.83;2.47;;;10.50;64.80;;;8.95;67.55;102497.66;8201563;28;20126;-86
2022/01/14 16:41:37;;;;;;;2.38;2.20;;;10.50;64.80;;;8.96;67.57;102483.72;8193309;28;20452;-86
2022/01/14 16:46:01;;;;;;;2.90;2.63;;;10.60;64.70;;;8.97;67.29;102482.88;8196508;28;20130;-86
2022/01/14 16:50:22;;;;;;;2.28;2.08;;;10.60;64.70;;;9.08;67.25;102494.78;8197473;28;20122;-86
2022/01/14 16:54:48;;;;;;;2.35;2.17;;;10.50;64.60;;;9.00;67.45;102485.41;8219283;28;20122;-85
2022/01/14 16:59:09;;;;;;;3.38;2.60;;;10.60;64.60;;;9.12;67.18;102518.16;8167979;28;20066;-86
2022/01/14 17:03:31;;;;;;;2.85;2.60;;;10.60;64.60;;;9.06;67.41;102500.91;8185450;28;20035;-87
2022/01/14 17:07:53;;;;;;;2.83;2.63;;;10.70;64.70;;;9.09;67.19;102508.66;8199921;28;20058;-87
2022/01/14 17:12:15;;;;;;;2.78;2.53;;;10.70;64.60;;;9.09;67.46;102499.09;8206100;28;20046;-86
2022/01/14 17:16:38;;;;;;;3.28;2.97;;;10.70;64.50;;;9.18;67.22;102520.63;8176721;28;20139;-86
2022/01/14 17:21:00;;;;;;;3.80;3.05;;;10.70;64.50;;;9.20;67.29;102524.94;8184727;28;20412;-86
2022/01/14 17:25:22;;;;;;;6.85;3.50;;;10.70;64.50;;;9.18;67.07;102513.69;8170899;28;20031;-87
2022/01/14 17:29:43;;;;;;;5.93;3.40;;;10.80;64.40;;;9.20;67.16;102524.94;8197771;28;20030;-86
2022/01/14 17:34:05;;;;;;;4.55;3.03;;;10.70;64.30;;;9.18;67.35;102539.75;8177633;28;20043;-87
2022/01/14 17:38:27;;;;;;;2.85;2.28;;;10.70;64.10;;;9.16;67.46;102538.06;8202090;28;20149;-87
2022/01/14 17:42:49;;;;;;;4.00;2.58;;;10.70;63.60;;;9.08;67.13;102538.22;8172773;28;20040;-86
2022/01/14 17:47:11;;;;;;;4.22;2.58;;;10.60;63.20;;;8.95;67.27;102515.91;8184639;28;20039;-86
2022/01/14 17:51:32;;;;;;;6.53;2.83;;;10.70;63.30;;;9.13;67.10;102554.63;8170464;28;20392;-86
2022/01/14 17:55:54;;;;;;;3.55;2.72;;;10.70;63.20;;;9.09;67.11;102555.56;8192481;28;20070;-87
2022/01/14 18:00:17;;;;;;;2.38;1.80;;;10.70;63.00;;;9.11;66.79;102559.00;8208170;28;20471;-87
2022/01/14 18:04:38;;;;;;;2.45;1.88;;;10.70;62.90;;;9.06;66.88;102571.25;8210499;28;20374;-87
2022/01/14 18:09:01;;;;;;;3.58;1.98;;;10.60;62.60;;;9.00;67.07;102556.59;8214146;28;20046;-86
2022/01/14 18:13:36;;;;;;;1.65;1.55;;;10.70;62.60;;;9.09;66.88;102577.25;8196264;28;20041;-87
2022/01/14 18:17:58;;;;;;;3.63;2.30;;;10.60;62.60;;;8.98;66.87;102574.00;8206305;28;20042;-86
2022/01/14 18:22:20;;;;;;;2.50;2.17;;;10.70;62.70;;;9.05;67.15;102573.03;8187834;28;20467;-85
2022/01/14 18:26:42;;;;;;;2.40;2.20;;;10.60;62.60;;;9.09;67.11;102590.28;8195950;28;20399;-86
2022/01/14 18:31:07;;;;;;;2.10;1.88;;;10.60;62.40;;;8.90;66.67;102560.28;8196349;28;20035;-85
2022/01/14 18:35:29;;;;;;;2.17;1.90;;;10.60;62.10;;;9.04;66.51;102586.06;8188970;28;20510;-87
2022/01/14 18:39:50;;;;;;;2.83;2.47;;;10.60;62.10;;;9.02;66.57;102587.88;8199562;28;20049;-85
2022/01/14 18:44:15;;;;;;;3.83;1.98;;;10.60;61.90;;;8.90;66.87;102570.69;8183764;28;20051;-85
2022/01/14 18:48:36;;;;;;;3.78;2.10;;;10.60;61.30;;;8.89;67.05;102582.00;8180069;28;20035;-85
2022/01/14 18:52:58;;;;;;;3.40;1.70;;;10.60;61.20;;;8.88;66.57;102585.47;8177462;28;20518;-86
2022/01/14 18:57:20;;;;;;;2.60;1.50;;;10.50;61.00;;;8.92;66.71;102604.53;8173820;28;20042;-85